sensor_id;sensor_type;location;lat;lon;timestamp;P1;durP1;ratioP1;P2;durP2;ratioP2
36195;SDS011;22237;51.974;4.616;2023-05-10T00:01:12;5.67;;;2.70;;
36195;SDS011;22237;51.974;4.616;2023-05-10T00:03:37;5.60;;;3.10;;
36195;SDS011;22237;51.974;4.616;2023-05-10T00:06:03;6.78;;;2.65;;
36195;SDS011;22237;51.974;4.616;2023-05-10T00:08:28;6.70;;;3.00;;
36195;SDS011;22237;51.974;4.616;2023-05-10T00:10:53;8.20;;;3.27;;
36195;SDS011;22237;51.974;4.616;2023-05-10T00:13:18;5.03;;;2.47;;
36195;SDS011;22237;51.974;4.616;2023-05-10T00:15:43;12.18;;;2.65;;
36195;SDS011;22237;51.974;4.616;2023-05-10T00:18:09;6.78;;;2.67;;
36195;SDS011;22237;51.974;4.616;2023-05-10T00:20:34;5.55;;;2.60;;
36195;SDS011;22237;51.974;4.616;2023-05-10T00:22:59;6.05;;;3.08;;
36195;SDS011;22237;51.974;4.616;2023-05-10T00:25:24;7.23;;;3.03;;
36195;SDS011;22237;51.974;4.616;2023-05-10T00:27:50;13.25;;;3.28;;
36195;SDS011;22237;51.974;4.616;2023-05-10T00:30:15;4.95;;;2.78;;
36195;SDS011;22237;51.974;4.616;2023-05-10T00:32:40;9.48;;;4.10;;
36195;SDS011;22237;51.974;4.616;2023-05-10T00:35:05;9.43;;;4.05;;
36195;SDS011;22237;51.974;4.616;2023-05-10T00:37:31;8.90;;;3.58;;
36195;SDS011;22237;51.974;4.616;2023-05-10T00:39:56;5.55;;;2.92;;
36195;SDS011;22237;51.974;4.616;2023-05-10T00:42:21;10.40;;;4.30;;
36195;SDS011;22237;51.974;4.616;2023-05-10T00:44:47;8.95;;;3.40;;
36195;SDS011;22237;51.974;4.616;2023-05-10T00:47:12;10.35;;;3.35;;
36195;SDS011;22237;51.974;4.616;2023-05-10T00:49:37;8.15;;;3.45;;
36195;SDS011;22237;51.974;4.616;2023-05-10T00:52:03;7.18;;;2.90;;
36195;SDS011;22237;51.974;4.616;2023-05-10T00:54:28;11.07;;;2.80;;
36195;SDS011;22237;51.974;4.616;2023-05-10T00:56:54;8.02;;;3.38;;
36195;SDS011;22237;51.974;4.616;2023-05-10T00:59:19;7.93;;;3.60;;
36195;SDS011;22237;51.974;4.616;2023-05-10T01:01:44;8.65;;;4.50;;
36195;SDS011;22237;51.974;4.616;2023-05-10T01:04:12;8.10;;;3.05;;
36195;SDS011;22237;51.974;4.616;2023-05-10T01:06:38;11.30;;;4.45;;
36195;SDS011;22237;51.974;4.616;2023-05-10T01:09:03;16.73;;;4.15;;
36195;SDS011;22237;51.974;4.616;2023-05-10T01:11:28;10.73;;;5.10;;
36195;SDS011;22237;51.974;4.616;2023-05-10T01:13:57;8.05;;;3.20;;
36195;SDS011;22237;51.974;4.616;2023-05-10T01:16:23;14.15;;;3.75;;
36195;SDS011;22237;51.974;4.616;2023-05-10T01:18:48;7.35;;;3.78;;
36195;SDS011;22237;51.974;4.616;2023-05-10T01:24:09;17.05;;;5.03;;
36195;SDS011;22237;51.974;4.616;2023-05-10T01:29:47;11.32;;;4.60;;
36195;SDS011;22237;51.974;4.616;2023-05-10T01:32:21;7.32;;;2.83;;
36195;SDS011;22237;51.974;4.616;2023-05-10T01:37:20;7.38;;;3.08;;
36195;SDS011;22237;51.974;4.616;2023-05-10T01:39:50;8.93;;;4.18;;
36195;SDS011;22237;51.974;4.616;2023-05-10T01:42:21;12.07;;;4.13;;
36195;SDS011;22237;51.974;4.616;2023-05-10T01:47:25;11.45;;;3.83;;
36195;SDS011;22237;51.974;4.616;2023-05-10T01:49:53;5.43;;;2.90;;
36195;SDS011;22237;51.974;4.616;2023-05-10T01:52:20;12.50;;;3.90;;
36195;SDS011;22237;51.974;4.616;2023-05-10T01:55:06;11.95;;;3.55;;
36195;SDS011;22237;51.974;4.616;2023-05-10T01:57:35;13.82;;;3.90;;
36195;SDS011;22237;51.974;4.616;2023-05-10T02:00:02;10.15;;;4.80;;
36195;SDS011;22237;51.974;4.616;2023-05-10T02:02:28;12.90;;;3.95;;
36195;SDS011;22237;51.974;4.616;2023-05-10T02:04:54;8.95;;;3.33;;
36195;SDS011;22237;51.974;4.616;2023-05-10T02:07:20;14.90;;;4.45;;
36195;SDS011;22237;51.974;4.616;2023-05-10T02:09:46;13.85;;;3.45;;
36195;SDS011;22237;51.974;4.616;2023-05-10T02:12:13;9.85;;;4.15;;
36195;SDS011;22237;51.974;4.616;2023-05-10T02:14:38;25.55;;;4.88;;
36195;SDS011;22237;51.974;4.616;2023-05-10T02:17:05;8.45;;;4.43;;
36195;SDS011;22237;51.974;4.616;2023-05-10T02:19:31;18.73;;;4.82;;
36195;SDS011;22237;51.974;4.616;2023-05-10T02:21:57;12.82;;;5.25;;
36195;SDS011;22237;51.974;4.616;2023-05-10T02:24:23;11.30;;;4.22;;
36195;SDS011;22237;51.974;4.616;2023-05-10T02:26:49;9.48;;;3.80;;
36195;SDS011;22237;51.974;4.616;2023-05-10T02:29:16;18.63;;;4.70;;
36195;SDS011;22237;51.974;4.616;2023-05-10T02:31:42;11.30;;;4.22;;
36195;SDS011;22237;51.974;4.616;2023-05-10T02:34:08;9.63;;;3.35;;
36195;SDS011;22237;51.974;4.616;2023-05-10T02:36:35;9.55;;;4.63;;
36195;SDS011;22237;51.974;4.616;2023-05-10T02:39:00;9.85;;;3.72;;
36195;SDS011;22237;51.974;4.616;2023-05-10T02:41:26;17.40;;;4.25;;
36195;SDS011;22237;51.974;4.616;2023-05-10T02:43:52;12.23;;;3.75;;
36195;SDS011;22237;51.974;4.616;2023-05-10T02:46:20;22.67;;;4.18;;
36195;SDS011;22237;51.974;4.616;2023-05-10T02:48:46;8.32;;;3.30;;
36195;SDS011;22237;51.974;4.616;2023-05-10T02:51:11;11.43;;;4.38;;
36195;SDS011;22237;51.974;4.616;2023-05-10T02:53:38;13.25;;;4.07;;
36195;SDS011;22237;51.974;4.616;2023-05-10T02:56:20;12.27;;;4.45;;
36195;SDS011;22237;51.974;4.616;2023-05-10T02:58:46;12.05;;;4.80;;
36195;SDS011;22237;51.974;4.616;2023-05-10T03:01:11;5.33;;;2.93;;
36195;SDS011;22237;51.974;4.616;2023-05-10T03:03:37;11.45;;;4.53;;
36195;SDS011;22237;51.974;4.616;2023-05-10T03:06:02;7.82;;;3.40;;
36195;SDS011;22237;51.974;4.616;2023-05-10T03:08:27;8.75;;;3.92;;
36195;SDS011;22237;51.974;4.616;2023-05-10T03:10:55;9.73;;;3.30;;
36195;SDS011;22237;51.974;4.616;2023-05-10T03:20:42;5.53;;;3.30;;
36195;SDS011;22237;51.974;4.616;2023-05-10T03:25:33;7.90;;;3.83;;
36195;SDS011;22237;51.974;4.616;2023-05-10T03:28:00;14.85;;;3.00;;
36195;SDS011;22237;51.974;4.616;2023-05-10T03:30:25;14.63;;;4.75;;
36195;SDS011;22237;51.974;4.616;2023-05-10T03:32:51;8.30;;;3.42;;
36195;SDS011;22237;51.974;4.616;2023-05-10T03:35:16;13.30;;;3.80;;
36195;SDS011;22237;51.974;4.616;2023-05-10T03:37:41;17.70;;;5.53;;
36195;SDS011;22237;51.974;4.616;2023-05-10T03:40:07;10.67;;;3.73;;
36195;SDS011;22237;51.974;4.616;2023-05-10T03:42:32;10.80;;;4.18;;
36195;SDS011;22237;51.974;4.616;2023-05-10T03:44:57;9.43;;;3.33;;
36195;SDS011;22237;51.974;4.616;2023-05-10T03:47:23;8.13;;;3.55;;
36195;SDS011;22237;51.974;4.616;2023-05-10T03:49:48;15.38;;;3.47;;
36195;SDS011;22237;51.974;4.616;2023-05-10T03:52:13;12.32;;;5.05;;
36195;SDS011;22237;51.974;4.616;2023-05-10T03:54:38;13.63;;;5.40;;
36195;SDS011;22237;51.974;4.616;2023-05-10T03:57:04;8.95;;;4.18;;
36195;SDS011;22237;51.974;4.616;2023-05-10T03:59:29;8.38;;;4.97;;
36195;SDS011;22237;51.974;4.616;2023-05-10T04:01:54;7.03;;;4.10;;
36195;SDS011;22237;51.974;4.616;2023-05-10T04:04:20;6.85;;;3.30;;
36195;SDS011;22237;51.974;4.616;2023-05-10T04:06:46;8.20;;;4.22;;
36195;SDS011;22237;51.974;4.616;2023-05-10T04:09:11;10.43;;;4.73;;
36195;SDS011;22237;51.974;4.616;2023-05-10T04:11:36;8.48;;;4.35;;
36195;SDS011;22237;51.974;4.616;2023-05-10T04:14:02;10.73;;;3.67;;
36195;SDS011;22237;51.974;4.616;2023-05-10T04:16:27;10.73;;;4.53;;
36195;SDS011;22237;51.974;4.616;2023-05-10T04:18:52;16.40;;;4.43;;
36195;SDS011;22237;51.974;4.616;2023-05-10T04:21:17;12.73;;;4.53;;
36195;SDS011;22237;51.974;4.616;2023-05-10T04:23:43;11.27;;;4.65;;
36195;SDS011;22237;51.974;4.616;2023-05-10T04:26:08;18.35;;;5.97;;
36195;SDS011;22237;51.974;4.616;2023-05-10T04:28:33;10.88;;;4.80;;
36195;SDS011;22237;51.974;4.616;2023-05-10T04:31:05;14.75;;;7.00;;
36195;SDS011;22237;51.974;4.616;2023-05-10T04:33:30;11.77;;;4.20;;
36195;SDS011;22237;51.974;4.616;2023-05-10T04:35:55;11.77;;;4.28;;
36195;SDS011;22237;51.974;4.616;2023-05-10T04:38:21;11.93;;;4.43;;
36195;SDS011;22237;51.974;4.616;2023-05-10T04:40:46;11.38;;;4.13;;
36195;SDS011;22237;51.974;4.616;2023-05-10T04:43:11;18.33;;;5.03;;
36195;SDS011;22237;51.974;4.616;2023-05-10T04:45:36;8.37;;;4.20;;
36195;SDS011;22237;51.974;4.616;2023-05-10T04:48:02;11.70;;;4.03;;
36195;SDS011;22237;51.974;4.616;2023-05-10T04:50:27;9.68;;;4.68;;
36195;SDS011;22237;51.974;4.616;2023-05-10T04:52:52;9.47;;;3.83;;
36195;SDS011;22237;51.974;4.616;2023-05-10T04:55:17;11.73;;;4.20;;
36195;SDS011;22237;51.974;4.616;2023-05-10T04:57:43;12.20;;;3.67;;
36195;SDS011;22237;51.974;4.616;2023-05-10T05:00:08;13.82;;;3.95;;
36195;SDS011;22237;51.974;4.616;2023-05-10T05:02:33;8.18;;;4.35;;
36195;SDS011;22237;51.974;4.616;2023-05-10T05:04:58;15.03;;;4.40;;
36195;SDS011;22237;51.974;4.616;2023-05-10T05:07:24;16.60;;;4.25;;
36195;SDS011;22237;51.974;4.616;2023-05-10T05:09:49;12.18;;;4.25;;
36195;SDS011;22237;51.974;4.616;2023-05-10T05:12:14;9.02;;;3.42;;
36195;SDS011;22237;51.974;4.616;2023-05-10T05:14:40;13.77;;;3.57;;
36195;SDS011;22237;51.974;4.616;2023-05-10T05:17:06;9.70;;;4.55;;
36195;SDS011;22237;51.974;4.616;2023-05-10T05:19:33;11.95;;;3.83;;
36195;SDS011;22237;51.974;4.616;2023-05-10T05:21:58;8.60;;;3.78;;
36195;SDS011;22237;51.974;4.616;2023-05-10T05:24:23;13.07;;;2.67;;
36195;SDS011;22237;51.974;4.616;2023-05-10T05:26:48;11.97;;;3.80;;
36195;SDS011;22237;51.974;4.616;2023-05-10T05:29:14;14.57;;;4.10;;
36195;SDS011;22237;51.974;4.616;2023-05-10T05:31:39;11.25;;;3.83;;
36195;SDS011;22237;51.974;4.616;2023-05-10T05:34:04;19.25;;;3.67;;
36195;SDS011;22237;51.974;4.616;2023-05-10T05:36:30;12.65;;;2.70;;
36195;SDS011;22237;51.974;4.616;2023-05-10T05:38:56;10.00;;;3.40;;
36195;SDS011;22237;51.974;4.616;2023-05-10T05:41:21;9.63;;;2.97;;
36195;SDS011;22237;51.974;4.616;2023-05-10T05:43:46;4.38;;;2.33;;
36195;SDS011;22237;51.974;4.616;2023-05-10T05:46:12;7.43;;;2.30;;
36195;SDS011;22237;51.974;4.616;2023-05-10T05:48:37;9.43;;;2.72;;
36195;SDS011;22237;51.974;4.616;2023-05-10T05:51:02;6.13;;;1.80;;
36195;SDS011;22237;51.974;4.616;2023-05-10T05:53:28;5.00;;;2.78;;
36195;SDS011;22237;51.974;4.616;2023-05-10T05:55:55;4.30;;;1.90;;
36195;SDS011;22237;51.974;4.616;2023-05-10T05:58:21;3.95;;;1.60;;
36195;SDS011;22237;51.974;4.616;2023-05-10T06:00:46;3.28;;;1.52;;
36195;SDS011;22237;51.974;4.616;2023-05-10T06:03:11;1.70;;;1.35;;
36195;SDS011;22237;51.974;4.616;2023-05-10T06:05:36;1.60;;;0.90;;
36195;SDS011;22237;51.974;4.616;2023-05-10T06:08:02;0.70;;;0.63;;
36195;SDS011;22237;51.974;4.616;2023-05-10T06:10:27;1.38;;;1.00;;
36195;SDS011;22237;51.974;4.616;2023-05-10T06:12:52;2.63;;;1.13;;
36195;SDS011;22237;51.974;4.616;2023-05-10T06:15:18;3.30;;;1.42;;
36195;SDS011;22237;51.974;4.616;2023-05-10T06:17:43;1.80;;;1.45;;
36195;SDS011;22237;51.974;4.616;2023-05-10T06:20:09;4.10;;;1.20;;
36195;SDS011;22237;51.974;4.616;2023-05-10T06:22:34;2.60;;;1.10;;
36195;SDS011;22237;51.974;4.616;2023-05-10T06:25:03;2.25;;;1.08;;
36195;SDS011;22237;51.974;4.616;2023-05-10T06:27:28;1.60;;;1.05;;
36195;SDS011;22237;51.974;4.616;2023-05-10T06:29:53;1.00;;;0.83;;
36195;SDS011;22237;51.974;4.616;2023-05-10T06:32:18;1.70;;;1.25;;
36195;SDS011;22237;51.974;4.616;2023-05-10T06:34:44;1.48;;;1.08;;
36195;SDS011;22237;51.974;4.616;2023-05-10T06:37:09;0.88;;;0.80;;
36195;SDS011;22237;51.974;4.616;2023-05-10T06:39:34;1.07;;;0.77;;
36195;SDS011;22237;51.974;4.616;2023-05-10T06:42:00;2.77;;;1.50;;
36195;SDS011;22237;51.974;4.616;2023-05-10T06:44:26;1.20;;;0.98;;
36195;SDS011;22237;51.974;4.616;2023-05-10T06:46:51;2.13;;;1.13;;
36195;SDS011;22237;51.974;4.616;2023-05-10T06:49:18;2.22;;;1.50;;
36195;SDS011;22237;51.974;4.616;2023-05-10T06:51:43;3.43;;;1.80;;
36195;SDS011;22237;51.974;4.616;2023-05-10T06:54:08;0.80;;;0.80;;
36195;SDS011;22237;51.974;4.616;2023-05-10T06:56:34;2.63;;;1.25;;
36195;SDS011;22237;51.974;4.616;2023-05-10T06:58:59;1.88;;;1.25;;
36195;SDS011;22237;51.974;4.616;2023-05-10T07:01:24;2.20;;;1.38;;
36195;SDS011;22237;51.974;4.616;2023-05-10T07:03:49;2.13;;;1.20;;
36195;SDS011;22237;51.974;4.616;2023-05-10T07:06:15;2.17;;;1.13;;
36195;SDS011;22237;51.974;4.616;2023-05-10T07:08:40;0.93;;;0.93;;
36195;SDS011;22237;51.974;4.616;2023-05-10T07:11:06;2.03;;;1.43;;
36195;SDS011;22237;51.974;4.616;2023-05-10T07:13:35;15.80;;;2.88;;
36195;SDS011;22237;51.974;4.616;2023-05-10T07:16:01;2.05;;;1.20;;
36195;SDS011;22237;51.974;4.616;2023-05-10T07:18:27;1.55;;;0.98;;
36195;SDS011;22237;51.974;4.616;2023-05-10T07:20:52;1.75;;;0.93;;
36195;SDS011;22237;51.974;4.616;2023-05-10T07:23:17;2.90;;;1.10;;
36195;SDS011;22237;51.974;4.616;2023-05-10T07:25:46;1.70;;;1.30;;
36195;SDS011;22237;51.974;4.616;2023-05-10T07:28:12;2.15;;;1.27;;
36195;SDS011;22237;51.974;4.616;2023-05-10T07:30:37;5.75;;;1.20;;
36195;SDS011;22237;51.974;4.616;2023-05-10T07:33:02;3.73;;;1.30;;
36195;SDS011;22237;51.974;4.616;2023-05-10T07:35:27;1.95;;;1.02;;
36195;SDS011;22237;51.974;4.616;2023-05-10T07:37:52;1.23;;;1.13;;
36195;SDS011;22237;51.974;4.616;2023-05-10T07:40:18;2.50;;;1.03;;
36195;SDS011;22237;51.974;4.616;2023-05-10T07:42:43;1.95;;;1.10;;
36195;SDS011;22237;51.974;4.616;2023-05-10T07:45:08;1.42;;;0.93;;
36195;SDS011;22237;51.974;4.616;2023-05-10T07:47:34;2.55;;;1.00;;
36195;SDS011;22237;51.974;4.616;2023-05-10T07:49:59;2.07;;;1.33;;
36195;SDS011;22237;51.974;4.616;2023-05-10T07:52:24;1.27;;;0.97;;
36195;SDS011;22237;51.974;4.616;2023-05-10T07:54:49;2.35;;;0.95;;
36195;SDS011;22237;51.974;4.616;2023-05-10T07:57:15;0.90;;;0.63;;
36195;SDS011;22237;51.974;4.616;2023-05-10T07:59:42;2.20;;;1.20;;
36195;SDS011;22237;51.974;4.616;2023-05-10T08:02:07;1.92;;;1.30;;
36195;SDS011;22237;51.974;4.616;2023-05-10T08:04:32;1.23;;;0.87;;
36195;SDS011;22237;51.974;4.616;2023-05-10T08:06:58;3.20;;;1.10;;
36195;SDS011;22237;51.974;4.616;2023-05-10T08:09:23;1.90;;;1.10;;
36195;SDS011;22237;51.974;4.616;2023-05-10T08:11:49;1.27;;;1.17;;
36195;SDS011;22237;51.974;4.616;2023-05-10T08:14:14;3.42;;;1.27;;
36195;SDS011;22237;51.974;4.616;2023-05-10T08:16:39;2.37;;;1.73;;
36195;SDS011;22237;51.974;4.616;2023-05-10T08:19:04;3.67;;;1.27;;
36195;SDS011;22237;51.974;4.616;2023-05-10T08:21:30;2.57;;;0.97;;
36195;SDS011;22237;51.974;4.616;2023-05-10T08:23:56;1.50;;;1.40;;
36195;SDS011;22237;51.974;4.616;2023-05-10T08:26:21;1.35;;;1.25;;
36195;SDS011;22237;51.974;4.616;2023-05-10T08:28:46;3.27;;;1.70;;
36195;SDS011;22237;51.974;4.616;2023-05-10T08:31:11;3.17;;;1.40;;
36195;SDS011;22237;51.974;4.616;2023-05-10T08:33:37;2.05;;;1.15;;
36195;SDS011;22237;51.974;4.616;2023-05-10T08:36:02;7.00;;;2.67;;
36195;SDS011;22237;51.974;4.616;2023-05-10T08:38:27;1.67;;;1.20;;
36195;SDS011;22237;51.974;4.616;2023-05-10T08:40:53;2.10;;;1.23;;
36195;SDS011;22237;51.974;4.616;2023-05-10T08:43:21;1.33;;;1.23;;
36195;SDS011;22237;51.974;4.616;2023-05-10T08:45:46;2.95;;;1.50;;
36195;SDS011;22237;51.974;4.616;2023-05-10T08:48:12;2.28;;;1.17;;
36195;SDS011;22237;51.974;4.616;2023-05-10T08:50:38;3.17;;;1.40;;
36195;SDS011;22237;51.974;4.616;2023-05-10T08:53:05;2.67;;;1.50;;
36195;SDS011;22237;51.974;4.616;2023-05-10T08:55:31;1.92;;;1.00;;
36195;SDS011;22237;51.974;4.616;2023-05-10T08:57:57;1.02;;;0.75;;
36195;SDS011;22237;51.974;4.616;2023-05-10T09:00:23;2.63;;;1.25;;
36195;SDS011;22237;51.974;4.616;2023-05-10T09:02:49;2.13;;;1.13;;
36195;SDS011;22237;51.974;4.616;2023-05-10T09:05:14;2.67;;;1.40;;
36195;SDS011;22237;51.974;4.616;2023-05-10T09:07:41;4.15;;;1.15;;
36195;SDS011;22237;51.974;4.616;2023-05-10T09:10:06;2.40;;;1.40;;
36195;SDS011;22237;51.974;4.616;2023-05-10T09:12:32;1.27;;;1.00;;
36195;SDS011;22237;51.974;4.616;2023-05-10T09:14:57;1.13;;;0.77;;
36195;SDS011;22237;51.974;4.616;2023-05-10T09:17:24;0.80;;;0.57;;
36195;SDS011;22237;51.974;4.616;2023-05-10T09:19:50;1.23;;;1.13;;
36195;SDS011;22237;51.974;4.616;2023-05-10T09:24:46;1.08;;;0.52;;
36195;SDS011;22237;51.974;4.616;2023-05-10T09:27:12;2.27;;;1.30;;
36195;SDS011;22237;51.974;4.616;2023-05-10T09:29:41;1.53;;;1.00;;
36195;SDS011;22237;51.974;4.616;2023-05-10T09:32:07;1.52;;;1.00;;
36195;SDS011;22237;51.974;4.616;2023-05-10T09:34:32;1.98;;;0.80;;
36195;SDS011;22237;51.974;4.616;2023-05-10T09:37:01;0.57;;;0.57;;
36195;SDS011;22237;51.974;4.616;2023-05-10T09:39:33;1.08;;;0.75;;
36195;SDS011;22237;51.974;4.616;2023-05-10T09:41:59;2.60;;;0.75;;
36195;SDS011;22237;51.974;4.616;2023-05-10T09:44:26;0.70;;;0.60;;
36195;SDS011;22237;51.974;4.616;2023-05-10T09:46:52;0.63;;;0.60;;
36195;SDS011;22237;51.974;4.616;2023-05-10T09:49:20;0.50;;;0.50;;
36195;SDS011;22237;51.974;4.616;2023-05-10T09:51:46;1.20;;;0.90;;
36195;SDS011;22237;51.974;4.616;2023-05-10T09:54:14;2.92;;;1.45;;
36195;SDS011;22237;51.974;4.616;2023-05-10T09:56:40;1.00;;;0.80;;
36195;SDS011;22237;51.974;4.616;2023-05-10T09:59:06;3.42;;;1.15;;
36195;SDS011;22237;51.974;4.616;2023-05-10T10:01:31;3.65;;;1.15;;
36195;SDS011;22237;51.974;4.616;2023-05-10T10:03:57;1.58;;;1.05;;
36195;SDS011;22237;51.974;4.616;2023-05-10T10:06:23;1.70;;;1.30;;
36195;SDS011;22237;51.974;4.616;2023-05-10T10:08:48;1.27;;;0.85;;
36195;SDS011;22237;51.974;4.616;2023-05-10T10:11:13;1.08;;;0.75;;
36195;SDS011;22237;51.974;4.616;2023-05-10T10:13:39;2.25;;;0.90;;
36195;SDS011;22237;51.974;4.616;2023-05-10T10:16:05;1.50;;;0.93;;
36195;SDS011;22237;51.974;4.616;2023-05-10T10:18:30;1.00;;;0.82;;
36195;SDS011;22237;51.974;4.616;2023-05-10T10:20:55;2.88;;;1.30;;
36195;SDS011;22237;51.974;4.616;2023-05-10T10:23:21;4.50;;;1.20;;
36195;SDS011;22237;51.974;4.616;2023-05-10T10:25:46;3.28;;;2.00;;
36195;SDS011;22237;51.974;4.616;2023-05-10T10:30:46;1.42;;;1.15;;
36195;SDS011;22237;51.974;4.616;2023-05-10T10:33:18;5.65;;;2.20;;
36195;SDS011;22237;51.974;4.616;2023-05-10T10:35:52;1.58;;;1.10;;
36195;SDS011;22237;51.974;4.616;2023-05-10T10:38:18;1.98;;;0.90;;
36195;SDS011;22237;51.974;4.616;2023-05-10T10:40:43;1.67;;;1.23;;
36195;SDS011;22237;51.974;4.616;2023-05-10T10:43:24;1.80;;;1.13;;
36195;SDS011;22237;51.974;4.616;2023-05-10T10:48:34;1.05;;;1.02;;
36195;SDS011;22237;51.974;4.616;2023-05-10T10:50:59;7.07;;;1.35;;
36195;SDS011;22237;51.974;4.616;2023-05-10T10:53:28;5.97;;;1.85;;
36195;SDS011;22237;51.974;4.616;2023-05-10T10:56:09;3.55;;;1.15;;
36195;SDS011;22237;51.974;4.616;2023-05-10T10:58:36;5.75;;;1.75;;
36195;SDS011;22237;51.974;4.616;2023-05-10T11:01:14;5.03;;;1.42;;
36195;SDS011;22237;51.974;4.616;2023-05-10T11:03:40;2.78;;;1.55;;
36195;SDS011;22237;51.974;4.616;2023-05-10T11:06:06;1.95;;;1.10;;
36195;SDS011;22237;51.974;4.616;2023-05-10T11:08:33;3.22;;;1.45;;
36195;SDS011;22237;51.974;4.616;2023-05-10T11:15:54;2.40;;;1.63;;
36195;SDS011;22237;51.974;4.616;2023-05-10T11:18:23;1.50;;;1.25;;
36195;SDS011;22237;51.974;4.616;2023-05-10T11:20:55;1.10;;;0.88;;
36195;SDS011;22237;51.974;4.616;2023-05-10T11:25:46;1.52;;;1.42;;
36195;SDS011;22237;51.974;4.616;2023-05-10T11:28:12;2.78;;;1.63;;
36195;SDS011;22237;51.974;4.616;2023-05-10T11:30:38;1.52;;;1.08;;
36195;SDS011;22237;51.974;4.616;2023-05-10T11:33:04;2.13;;;1.35;;
36195;SDS011;22237;51.974;4.616;2023-05-10T11:35:30;1.98;;;1.30;;
36195;SDS011;22237;51.974;4.616;2023-05-10T11:37:55;1.87;;;1.17;;
36195;SDS011;22237;51.974;4.616;2023-05-10T11:40:23;2.33;;;1.20;;
36195;SDS011;22237;51.974;4.616;2023-05-10T11:42:49;4.45;;;1.45;;
36195;SDS011;22237;51.974;4.616;2023-05-10T11:45:14;3.08;;;1.60;;
36195;SDS011;22237;51.974;4.616;2023-05-10T11:47:40;2.88;;;1.50;;
36195;SDS011;22237;51.974;4.616;2023-05-10T11:50:07;8.13;;;1.58;;
36195;SDS011;22237;51.974;4.616;2023-05-10T11:52:36;3.47;;;1.70;;
36195;SDS011;22237;51.974;4.616;2023-05-10T11:55:02;4.18;;;2.22;;
36195;SDS011;22237;51.974;4.616;2023-05-10T11:57:27;1.98;;;1.05;;
36195;SDS011;22237;51.974;4.616;2023-05-10T11:59:53;3.10;;;1.23;;
36195;SDS011;22237;51.974;4.616;2023-05-10T12:02:19;3.53;;;1.50;;
36195;SDS011;22237;51.974;4.616;2023-05-10T12:04:45;1.45;;;1.10;;
36195;SDS011;22237;51.974;4.616;2023-05-10T12:07:10;1.80;;;1.35;;
36195;SDS011;22237;51.974;4.616;2023-05-10T12:09:35;0.90;;;0.80;;
36195;SDS011;22237;51.974;4.616;2023-05-10T12:12:00;1.87;;;1.00;;
36195;SDS011;22237;51.974;4.616;2023-05-10T12:14:27;2.67;;;1.05;;
36195;SDS011;22237;51.974;4.616;2023-05-10T12:16:53;1.70;;;0.82;;
36195;SDS011;22237;51.974;4.616;2023-05-10T12:19:18;1.10;;;1.00;;
36195;SDS011;22237;51.974;4.616;2023-05-10T12:21:44;1.77;;;1.25;;
36195;SDS011;22237;51.974;4.616;2023-05-10T12:24:10;2.15;;;1.38;;
36195;SDS011;22237;51.974;4.616;2023-05-10T12:26:35;3.03;;;1.40;;
36195;SDS011;22237;51.974;4.616;2023-05-10T12:29:17;2.20;;;1.38;;
36195;SDS011;22237;51.974;4.616;2023-05-10T12:31:55;1.85;;;1.00;;
36195;SDS011;22237;51.974;4.616;2023-05-10T12:34:29;1.90;;;1.60;;
36195;SDS011;22237;51.974;4.616;2023-05-10T12:36:55;1.40;;;1.23;;
36195;SDS011;22237;51.974;4.616;2023-05-10T12:39:20;1.80;;;1.10;;
36195;SDS011;22237;51.974;4.616;2023-05-10T12:41:46;2.90;;;1.23;;
36195;SDS011;22237;51.974;4.616;2023-05-10T12:44:11;1.57;;;1.20;;
36195;SDS011;22237;51.974;4.616;2023-05-10T12:46:36;2.75;;;1.30;;
36195;SDS011;22237;51.974;4.616;2023-05-10T12:49:02;3.38;;;1.30;;
36195;SDS011;22237;51.974;4.616;2023-05-10T12:51:27;2.90;;;0.77;;
36195;SDS011;22237;51.974;4.616;2023-05-10T12:53:52;4.57;;;1.30;;
36195;SDS011;22237;51.974;4.616;2023-05-10T12:56:17;1.30;;;1.03;;
36195;SDS011;22237;51.974;4.616;2023-05-10T12:58:42;5.47;;;1.30;;
36195;SDS011;22237;51.974;4.616;2023-05-10T13:01:15;1.13;;;1.02;;
36195;SDS011;22237;51.974;4.616;2023-05-10T13:03:40;2.13;;;1.20;;
36195;SDS011;22237;51.974;4.616;2023-05-10T13:06:05;1.83;;;1.07;;
36195;SDS011;22237;51.974;4.616;2023-05-10T13:08:31;1.80;;;1.55;;
36195;SDS011;22237;51.974;4.616;2023-05-10T13:10:58;2.00;;;1.08;;
36195;SDS011;22237;51.974;4.616;2023-05-10T13:13:23;3.67;;;0.93;;
36195;SDS011;22237;51.974;4.616;2023-05-10T13:15:49;3.50;;;1.00;;
36195;SDS011;22237;51.974;4.616;2023-05-10T13:18:14;1.55;;;1.08;;
36195;SDS011;22237;51.974;4.616;2023-05-10T13:20:39;1.60;;;1.30;;
36195;SDS011;22237;51.974;4.616;2023-05-10T13:23:04;1.20;;;1.10;;
36195;SDS011;22237;51.974;4.616;2023-05-10T13:25:30;2.47;;;1.00;;
36195;SDS011;22237;51.974;4.616;2023-05-10T13:27:55;2.13;;;0.77;;
36195;SDS011;22237;51.974;4.616;2023-05-10T13:30:20;1.25;;;0.90;;
36195;SDS011;22237;51.974;4.616;2023-05-10T13:32:46;2.72;;;0.98;;
36195;SDS011;22237;51.974;4.616;2023-05-10T13:35:11;2.17;;;1.17;;
36195;SDS011;22237;51.974;4.616;2023-05-10T13:37:36;2.00;;;0.63;;
36195;SDS011;22237;51.974;4.616;2023-05-10T13:40:02;0.73;;;0.73;;
36195;SDS011;22237;51.974;4.616;2023-05-10T13:42:50;1.80;;;0.88;;
36195;SDS011;22237;51.974;4.616;2023-05-10T13:45:14;4.55;;;0.80;;
36195;SDS011;22237;51.974;4.616;2023-05-10T13:47:39;1.40;;;0.88;;
36195;SDS011;22237;51.974;4.616;2023-05-10T13:50:05;8.07;;;1.00;;
36195;SDS011;22237;51.974;4.616;2023-05-10T13:52:30;2.78;;;1.13;;
36195;SDS011;22237;51.974;4.616;2023-05-10T13:54:55;1.53;;;1.07;;
36195;SDS011;22237;51.974;4.616;2023-05-10T13:57:22;0.50;;;0.50;;
36195;SDS011;22237;51.974;4.616;2023-05-10T13:59:48;3.45;;;0.60;;
36195;SDS011;22237;51.974;4.616;2023-05-10T14:02:13;4.00;;;1.00;;
36195;SDS011;22237;51.974;4.616;2023-05-10T14:04:38;0.87;;;0.80;;
36195;SDS011;22237;51.974;4.616;2023-05-10T14:07:03;2.28;;;0.75;;
36195;SDS011;22237;51.974;4.616;2023-05-10T14:09:29;1.05;;;0.90;;
36195;SDS011;22237;51.974;4.616;2023-05-10T14:11:55;1.15;;;0.88;;
36195;SDS011;22237;51.974;4.616;2023-05-10T14:14:23;3.58;;;0.85;;
36195;SDS011;22237;51.974;4.616;2023-05-10T14:16:50;1.42;;;0.85;;
36195;SDS011;22237;51.974;4.616;2023-05-10T14:19:16;2.97;;;1.77;;
36195;SDS011;22237;51.974;4.616;2023-05-10T14:21:42;2.88;;;1.00;;
36195;SDS011;22237;51.974;4.616;2023-05-10T14:24:08;4.28;;;0.82;;
36195;SDS011;22237;51.974;4.616;2023-05-10T14:26:33;1.17;;;1.08;;
36195;SDS011;22237;51.974;4.616;2023-05-10T14:28:59;2.03;;;0.82;;
36195;SDS011;22237;51.974;4.616;2023-05-10T14:31:24;5.75;;;1.23;;
36195;SDS011;22237;51.974;4.616;2023-05-10T14:33:50;1.38;;;0.65;;
36195;SDS011;22237;51.974;4.616;2023-05-10T14:36:15;1.05;;;0.70;;
36195;SDS011;22237;51.974;4.616;2023-05-10T14:38:41;4.45;;;1.90;;
36195;SDS011;22237;51.974;4.616;2023-05-10T14:41:06;0.80;;;0.80;;
36195;SDS011;22237;51.974;4.616;2023-05-10T14:43:31;1.77;;;0.73;;
36195;SDS011;22237;51.974;4.616;2023-05-10T14:45:57;0.90;;;0.85;;
36195;SDS011;22237;51.974;4.616;2023-05-10T14:48:22;1.52;;;1.10;;
36195;SDS011;22237;51.974;4.616;2023-05-10T14:50:47;1.85;;;1.10;;
36195;SDS011;22237;51.974;4.616;2023-05-10T14:53:14;4.20;;;1.80;;
36195;SDS011;22237;51.974;4.616;2023-05-10T14:55:39;1.33;;;0.90;;
36195;SDS011;22237;51.974;4.616;2023-05-10T14:58:04;1.10;;;0.90;;
36195;SDS011;22237;51.974;4.616;2023-05-10T15:00:30;2.00;;;1.38;;
36195;SDS011;22237;51.974;4.616;2023-05-10T15:02:56;1.80;;;0.90;;
36195;SDS011;22237;51.974;4.616;2023-05-10T15:05:21;1.15;;;1.00;;
36195;SDS011;22237;51.974;4.616;2023-05-10T15:07:46;2.42;;;0.95;;
36195;SDS011;22237;51.974;4.616;2023-05-10T15:10:12;1.33;;;1.07;;
36195;SDS011;22237;51.974;4.616;2023-05-10T15:12:37;2.17;;;0.73;;
36195;SDS011;22237;51.974;4.616;2023-05-10T15:15:03;2.00;;;1.08;;